This is the latest recevied weather packets stored in our database for station/object KG5MMT-15. If no packets are shown the sender has not sent any weather packets the latest 10 day(s).
| Time | Temp. | Humidity | Pressure | Rain* | Wind** | Luminosity | Snow |
|---|---|---|---|---|---|---|---|
| 1777817542 | 11.67° C | 47% | 0 hPa | 0 mm | - | - | - |
| 1777817242 | 11.11° C | 46% | 0 hPa | 0 mm | - | - | - |
| 1777816942 | 10.56° C | 54% | 0 hPa | 0 mm | - | - | - |
| 1777816642 | 9.44° C | 54% | 0 hPa | 0 mm | - | - | - |
| 1777816342 | 8.33° C | 64% | 0 hPa | 0 mm | - | - | - |
| 1777816042 | 7.78° C | 69% | 0 hPa | 0 mm | - | - | - |
| 1777815742 | 7.22° C | 72% | 0 hPa | 0 mm | - | - | - |
| 1777815442 | 6.11° C | 76% | 0 hPa | 0 mm | - | - | - |
| 1777815142 | 6.11° C | 77% | 0 hPa | 0 mm | - | - | - |
| 1777814842 | 5.56° C | 80% | 0 hPa | 0 mm | - | - | - |
| 1777814542 | 4.44° C | 83% | 0 hPa | 0 mm | - | - | - |
| 1777814242 | 3.89° C | 86% | 0 hPa | 0 mm | - | - | - |
| 1777813942 | 3.33° C | 88% | 0 hPa | 0 mm | - | - | - |
| 1777813642 | 2.78° C | 86% | 0 hPa | 0 mm | - | - | - |
| 1777813342 | 2.78° C | 86% | 0 hPa | 0 mm | - | - | - |
| 1777813042 | 2.22° C | 88% | 0 hPa | 0 mm | - | - | - |
| 1777812742 | 2.22° C | 86% | 0 hPa | 0 mm | - | - | - |
| 1777812442 | 2.22° C | 87% | 0 hPa | 0 mm | - | - | - |
| 1777812142 | 1.67° C | 88% | 0 hPa | 0 mm | - | - | - |
| 1777811842 | 1.67° C | 87% | 0 hPa | 0 mm | - | - | - |
| 1777811542 | 1.11° C | 89% | 0 hPa | 0 mm | - | - | - |
| 1777811242 | 0.56° C | 90% | 0 hPa | 0 mm | - | - | - |
| 1777810942 | 0.56° C | 91% | 0 hPa | 0 mm | - | - | - |
| 1777810642 | 0.56° C | 91% | 0 hPa | 0 mm | - | - | - |
| 1777810342 | 0.56° C | 91% | 0 hPa | 0 mm | - | - | - |
* Rain latest hour (hover to see other rain measurements)
** Current wind speed in m/s (hover to see current wind gust speed)